Neil Armstrong — WARL — position and weather

sailwx.info

Track history (hours):
 
Tides and Currents Weather Stations Pressure Air Temp Water Temp Dewpoint Dewpoint Depression Visibility Wind Speed Wind Dir Waves Ship Positions

Oceanographic research ship Neil Armstrong (United States)

Owner: Woods Hole Oceanographic Institution, Woods Hole, MA. More information available from US FCC via Universal Licensing System and Coast Guard Vessel Documentation Center.

Last reported at 2019-Dec-15 09:00 UTC. Time now 2019-Dec-15 10:57 UTC.
Position N 41°30' W 070°42'.

Length 72 m; draft 4.4 m.

Type: Ship. MMSI: 338767000.

Wind from 260 at 24 knots

Barometer 995.2 mb
Air temperature 6.6 ° C
Dewpoint 1.8 ° C

Date/timePositionNaut miles runAvg speedWind from/ knotsBaromVisibWave heightAir tempDewpointWater temp
2019-Dec-15 09:00N 41°30' W 070°42'0 0.0 260 / 24995.2 6.6 1.8
2019-Dec-15 08:00N 41°30' W 070°42'2 3.9 260 / 22993.8 7.4 2.8
2019-Dec-15 07:30N 41°31' W 070°40'2 3.8
2019-Dec-15 07:00N 41°30' W 070°42'0 0.0 240 / 28992.6 8.7 4.0
2019-Dec-15 06:00N 41°30' W 070°42'0 0.0 240 / 20991.8 9.4 4.6
2019-Dec-15 05:00N 41°30' W 070°42'2 1.9 230 / 28991.1 10.3 5.6
2019-Dec-15 04:00N 41°31' W 070°40'2274.9
2019-Dec-15 04:00N 41°30' W 070°42'2 3.9 230 / 26990.5 10.2 6.5
2019-Dec-15 03:30N 41°31' W 070°40'0 0.0
2019-Dec-15 03:00N 41°31' W 070°40'2274.5
2019-Dec-15 03:00N 41°30' W 070°42'0 0.0 230 / 20990.1 11.0 8.4
2019-Dec-15 02:00N 41°30' W 070°42'2 1.9 220 / 17990.0 10.5 8.9
2019-Dec-15 01:00N 41°31' W 070°40'2274.9
2019-Dec-15 01:00N 41°30' W 070°42'2 1.9 210 / 7989.7 12.811.5
2019-Dec-15 00:00N 41°31' W 070°40'2274.5
2019-Dec-15 00:00N 41°30' W 070°42'2 3.9 180 / 10990.2 12.911.4
2019-Dec-14 23:30N 41°31' W 070°40'2 3.8
2019-Dec-14 23:00N 41°30' W 070°42'0 0.0 180 / 21990.2 13.211.3
2019-Dec-14 22:00N 41°30' W 070°42'0 0.0 190 / 20991.2 13.612.1
2019-Dec-14 21:00N 41°30' W 070°42'0 0.0 180 / 17992.5 13.011.7
2019-Dec-14 20:00N 41°30' W 070°42'0 0.0 210 / 10993.3 12.711.5
2019-Dec-14 19:00N 41°30' W 070°42'0 0.0 200 / 4993.6 12.611.4
2019-Dec-14 18:00N 41°30' W 070°42'2 3.9 180 / 7995.1 12.711.4
2019-Dec-14 17:30N 41°31' W 070°40'2 3.8
2019-Dec-14 17:00N 41°30' W 070°42'0 0.0 220 / 4995.9 13.312.0
2019-Dec-14 16:00N 41°30' W 070°42'2 3.9 180 / 7997.0 13.211.8
2019-Dec-14 15:30N 41°31' W 070°40'0 0.0
2019-Dec-14 15:00N 41°31' W 070°40'2274.9
2019-Dec-14 15:00N 41°30' W 070°42'2 3.9 190 / 15997.4 13.011.6
2019-Dec-14 14:30N 41°31' W 070°40'2 3.8
2019-Dec-14 14:00N 41°30' W 070°42'0 0.0 160 / 17999.7 15.013.7
2019-Dec-14 13:00N 41°30' W 070°42'2 3.9 150 / 111002.0 13.211.9
2019-Dec-14 12:30N 41°31' W 070°40'2 3.8
2019-Dec-14 12:00N 41°30' W 070°42'0 0.0 130 / 91003.4 12.511.3
2019-Dec-14 11:00N 41°30' W 070°42'2 3.9 120 / 111004.9 10.9 9.5
2019-Dec-14 10:30N 41°31' W 070°40'2 3.8
2019-Dec-14 10:00N 41°30' W 070°42'2 3.9 120 / 161006.3 11.1 9.9
2019-Dec-14 09:30N 41°31' W 070°40'2 3.8
2019-Dec-14 09:00N 41°30' W 070°42'0 0.0 120 / 211008.2 10.1 8.8
2019-Dec-14 08:00N 41°30' W 070°42'2 1.9 130 / 201010.5 9.5 8.2
2019-Dec-14 07:00N 41°31' W 070°40'2274.9
2019-Dec-14 07:00N 41°30' W 070°42'2 3.9 090 / 121013.3 8.8 7.4
2019-Dec-14 06:30N 41°31' W 070°40'0 0.0
2019-Dec-14 06:00N 41°31' W 070°40'2274.9
2019-Dec-14 06:00N 41°30' W 070°42'2 1.9 120 / 81015.4 8.5 7.0
2019-Dec-14 05:00N 41°31' W 070°40'2274.5
2019-Dec-14 05:00N 41°30' W 070°42'2 3.9 110 / 131017.2 8.4 6.8
2019-Dec-14 04:30N 41°31' W 070°40'2 3.8
2019-Dec-14 04:00N 41°30' W 070°42'2 3.9 110 / 141019.1 8.3 6.7
2019-Dec-14 03:30N 41°31' W 070°40'0 0.0
2019-Dec-14 03:00N 41°31' W 070°40'2274.5
2019-Dec-14 03:00N 41°30' W 070°42'0 0.0 090 / 71020.7 7.4 5.6
2019-Dec-14 02:00N 41°30' W 070°42'2 3.9 100 / 71022.1 8.0 6.0
2019-Dec-14 01:30N 41°31' W 070°40'2 3.8
2019-Dec-14 01:00N 41°30' W 070°42'0 0.0 090 / 71023.4 8.3 6.2
2019-Dec-14 00:00N 41°30' W 070°42'2 3.9 120 / 121024.7 8.1 6.0
2019-Dec-13 23:30N 41°31' W 070°40'2 3.8
2019-Dec-13 23:00N 41°30' W 070°42'2 3.9 110 / 81025.3 7.8 5.6
2019-Dec-13 22:30N 41°31' W 070°40'2 3.8
2019-Dec-13 22:00N 41°30' W 070°42'0 0.0 100 / 101026.3 7.7 5.2
2019-Dec-13 21:00N 41°30' W 070°42'2 3.9 070 / 71026.8 7.5 4.6
2019-Dec-13 20:30N 41°31' W 070°40'2 3.8
2019-Dec-13 20:00N 41°30' W 070°42'0 0.0 090 / 81027.6 7.6 3.9
2019-Dec-13 19:00N 41°30' W 070°42'2 3.9 070 / 51028.5 7.5 3.6
2019-Dec-13 18:30N 41°31' W 070°40'2 3.8
2019-Dec-13 18:00N 41°30' W 070°42'2 1.9 120 / 71029.4 8.1 3.2
2019-Dec-13 17:00N 41°31' W 070°40'2275.6
2019-Dec-13 17:00N 41°30' W 070°42'2 1.9 120 / 71029.8 7.7 2.8
2019-Dec-13 16:00N 41°31' W 070°40'2274.9
2019-Dec-13 16:00N 41°30' W 070°42'0 0.0 120 / 111031.2 7.2 2.4
2019-Dec-13 15:00N 41°30' W 070°42'0 0.0 130 / 81032.1 6.4 1.3
2019-Dec-13 14:00N 41°30' W 070°42'2 1.9 130 / 81032.6 5.3 0.5
2019-Dec-13 13:00N 41°31' W 070°40'2274.9
2019-Dec-13 13:00N 41°30' W 070°42'0 0.0 150 / 91033.4 4.2-1.0
2019-Dec-13 12:00N 41°30' W 070°42'0 0.0 120 / 101034.0 3.7-2.1
2019-Dec-13 11:00N 41°30' W 070°42'0 0.0 130 / 141034.4 3.5-2.4
2019-Dec-13 10:00N 41°30' W 070°42'0 0.0 130 / 81035.7 2.7-3.0
2019-Dec-13 09:00N 41°30' W 070°42'2 3.9 130 / 71036.6 2.3-3.2
2019-Dec-13 08:30N 41°31' W 070°40'2 3.8
2019-Dec-13 08:00N 41°30' W 070°42'2 1.9 110 / 51037.5 1.6-4.1
2019-Dec-13 07:00N 41°31' W 070°40'2274.9
2019-Dec-13 07:00N 41°30' W 070°42'2 3.9 120 / 61037.8 1.1-4.7
2019-Dec-13 06:30N 41°31' W 070°40'0 0.0
2019-Dec-13 06:00N 41°31' W 070°40'2274.5
2019-Dec-13 06:00N 41°30' W 070°42'0 0.0 120 / 61038.1 0.8-5.7
2019-Dec-13 05:00N 41°30' W 070°42'2 3.9 120 / 41038.7 0.1-6.6
2019-Dec-13 04:30N 41°31' W 070°40'2 3.8
2019-Dec-13 04:00N 41°30' W 070°42'0 0.0 130 / 41039.2 -0.7-7.0
2019-Dec-13 03:00N 41°30' W 070°42'2 1.9 090 / 11039.9 -1.4-9.7
2019-Dec-13 02:00N 41°31' W 070°40'2274.5
2019-Dec-13 02:00N 41°30' W 070°42'0 0.0 070 / 31039.8 -1.6-10.1
2019-Dec-13 01:00N 41°30' W 070°42'0 0.0 080 / 31040.3 -1.4-9.1
2019-Dec-13 00:00N 41°30' W 070°42'2 3.9 090 / 41040.4 -1.9-9.4
2019-Dec-12 23:30N 41°31' W 070°40'2 3.8
2019-Dec-12 23:00N 41°30' W 070°42'0 0.0 080 / 41040.2 -1.8-9.3
2019-Dec-12 22:00N 41°30' W 070°42'0 0.0 090 / 31039.7 -1.6-8.7
2019-Dec-12 21:00N 41°30' W 070°42'2 1.9 340 / 31039.5 -0.7-9.0
2019-Dec-12 20:00N 41°31' W 070°40'2274.9
2019-Dec-12 20:00N 41°30' W 070°42'0 0.0 320 / 31039.4 -0.7-9.2
2019-Dec-12 19:00N 41°30' W 070°42'0 0.0 340 / 61038.8 -0.7-9.5
2019-Dec-12 18:00N 41°30' W 070°42'0 0.0 310 / 81039.1 -1.1-10.1
2019-Dec-12 17:00N 41°30' W 070°42'0 0.0 320 / 41039.3 -1.7-11.2
2019-Dec-12 16:00N 41°30' W 070°42'2 1.9 340 / 51039.4 -1.9-11.2
2019-Dec-12 15:00N 41°31' W 070°40'2274.9
2019-Dec-12 15:00N 41°30' W 070°42'0 0.0 320 / 91040.1 -2.3-11.4
2019-Dec-12 14:00N 41°30' W 070°42'2 3.9 340 / 101039.6 -2.7-11.1
2019-Dec-12 13:30N 41°31' W 070°40'2 3.8
2019-Dec-12 13:00N 41°30' W 070°42'2 3.9 320 / 151038.7 -2.6-10.0
2019-Dec-12 12:30N 41°31' W 070°40'2 3.8
2019-Dec-12 12:00N 41°30' W 070°42'2 1.9 330 / 81037.1 -2.7-9.4
2019-Dec-12 11:00N 41°31' W 070°40'2275.6
2019-Dec-12 11:00N 41°30' W 070°42'2 3.9 330 / 121036.1 -2.7-9.1
2019-Dec-12 10:30N 41°31' W 070°40'2 3.8
2019-Dec-12 10:00N 41°30' W 070°42'0 0.0 290 / 91034.8 -2.1-8.9
2019-Dec-12 09:00N 41°30' W 070°42'2 4.9 300 / 141033.5 -2.1-9.7
2019-Dec-12 08:36N 41°31' W 070°40'2 3.2
2019-Dec-12 08:00N 41°30' W 070°42'2 3.9 320 / 111032.4 -1.0-9.0
2019-Dec-12 07:30N 41°31' W 070°40'2 3.8
2019-Dec-12 07:00N 41°30' W 070°42'2 1.9 300 / 141031.6 -0.1-6.9
2019-Dec-12 06:00N 41°31' W 070°40'2274.9
2019-Dec-12 06:00N 41°30' W 070°42'0 0.0 290 / 181030.0 0.8-5.7
2019-Dec-12 05:00N 41°30' W 070°42'2 3.5 300 / 171028.6 1.0-4.3
2019-Dec-12 04:27N 41°31' W 070°40'2 4.2
2019-Dec-12 04:00N 41°30' W 070°42'0 0.0 290 / 161027.6 1.7-3.7
2019-Dec-12 03:00N 41°30' W 070°42'2 1.9 270 / 201026.7 2.3-2.7
2019-Dec-12 02:00N 41°31' W 070°40'2274.9
2019-Dec-12 02:00N 41°30' W 070°42'2 3.9 290 / 191026.3 1.9-3.2
2019-Dec-12 01:30N 41°31' W 070°40'2 3.8
2019-Dec-12 01:00N 41°30' W 070°42'2 3.9 270 / 181026.5 1.3-4.8
2019-Dec-12 00:30N 41°31' W 070°40'0 0.0
2019-Dec-12 00:00N 41°31' W 070°40'2274.5
2019-Dec-12 00:00N 41°30' W 070°42'0 0.0 290 / 131026.1 1.1-5.0
2019-Dec-11 23:00N 41°30' W 070°42'2 3.9 280 / 121025.3 1.0-5.3
2019-Dec-11 22:30N 41°31' W 070°40'2 3.8
2019-Dec-11 22:00N 41°30' W 070°42'2 1.9 280 / 111024.5 0.2-4.9
2019-Dec-11 21:00N 41°31' W 070°40'2274.9
2019-Dec-11 21:00N 41°30' W 070°42'0 0.0 270 / 61023.6 -0.3-3.6
2019-Dec-11 20:00N 41°30' W 070°42'2 3.9 290 / 71023.2 -0.7-3.1
2019-Dec-11 19:30N 41°31' W 070°40'2 3.8
2019-Dec-11 19:00N 41°30' W 070°42'0 0.0 300 / 61022.6 -0.9-2.7
2019-Dec-11 18:00N 41°30' W 070°42'0 0.0 310 / 71022.9 -1.3-2.8
2019-Dec-11 17:00N 41°30' W 070°42'0 0.0 310 / 131024.2 -1.4-2.8
2019-Dec-11 16:00N 41°30' W 070°42'0 0.0 310 / 91024.0 -1.0-2.4
2019-Dec-11 15:00N 41°30' W 070°42'0 0.0 300 / 141024.7 -0.7-2.1
2019-Dec-11 14:00N 41°30' W 070°42'0 0.0 320 / 81024.0 -0.2-1.6
2019-Dec-11 13:00N 41°30' W 070°42'0 0.0 340 / 101023.1 0.2-1.4
2019-Dec-11 12:00N 41°30' W 070°42'2 1.9 350 / 101022.2 0.4-1.5
2019-Dec-11 11:00N 41°31' W 070°40'2274.9
2019-Dec-11 11:00N 41°30' W 070°42'0 0.0 010 / 131021.0 0.7-1.3
2019-Dec-11 10:00N 41°30' W 070°42'2 1.9 010 / 131020.6 2.0-0.0
2019-Dec-11 09:00N 41°31' W 070°40'2274.5
2019-Dec-11 09:00N 41°30' W 070°42'0 0.0 340 / 71019.5 3.7 1.9
2019-Dec-11 08:00N 41°30' W 070°42'2 3.9 320 / 101018.7 4.2 1.6
2019-Dec-11 07:30N 41°31' W 070°40'2 3.8
2019-Dec-11 07:00N 41°30' W 070°42'2 1.9 340 / 61018.1 4.8 1.8
2019-Dec-11 06:00N 41°31' W 070°40'2274.5
2019-Dec-11 06:00N 41°30' W 070°42'0 0.0 320 / 71017.5 5.4 3.0
2019-Dec-11 05:00N 41°30' W 070°42'2 3.9 330 / 71017.5 6.6 4.2
2019-Dec-11 04:30N 41°31' W 070°40'2 3.8
2019-Dec-11 04:00N 41°30' W 070°42'2 3.9 310 / 31017.0 6.9 4.4
2019-Dec-11 03:30N 41°31' W 070°40'2 3.8
2019-Dec-11 03:00N 41°30' W 070°42'0 0.0 310 / 51015.5 7.2 4.8
2019-Dec-11 02:00N 41°30' W 070°42'0 0.0 250 / 171012.9 11.6 8.7
2019-Dec-11 01:00N 41°30' W 070°42'0 0.0 260 / 61012.9 10.7 8.8
2019-Dec-11 00:00N 41°30' W 070°42'2 1.9 240 / 181012.4 12.1 9.4
2019-Dec-10 23:00N 41°31' W 070°40'2274.9
2019-Dec-10 23:00N 41°30' W 070°42'2 1.9 240 / 201011.5 11.8 9.6
2019-Dec-10 22:00N 41°31' W 070°40'2274.9
2019-Dec-10 22:00N 41°30' W 070°42'0 0.0 220 / 111010.4 10.8 9.2
2019-Dec-10 21:00N 41°30' W 070°42'2 3.9 220 / 111009.7 10.7 9.1
2019-Dec-10 20:30N 41°31' W 070°40'2 3.8
2019-Dec-10 20:00N 41°30' W 070°42'0 0.0 230 / 191009.4 12.810.7
2019-Dec-10 19:00N 41°30' W 070°42'2 3.9 230 / 191009.3 11.910.2
2019-Dec-10 18:30N 41°31' W 070°40'2 3.8
2019-Dec-10 18:00N 41°30' W 070°42'0 0.0 220 / 141008.1 11.3 9.6
2019-Dec-10 17:00N 41°30' W 070°42'0 0.0 210 / 81008.8 11.1 9.5
2019-Dec-10 16:00N 41°30' W 070°42'0 0.0 220 / 141009.7 11.4 9.7
2019-Dec-10 15:00N 41°30' W 070°42'2 3.9 210 / 81010.1 11.610.0
2019-Dec-10 14:30N 41°31' W 070°40'2 3.8
2019-Dec-10 14:00N 41°30' W 070°42'2 1.9 210 / 71009.9 11.4 9.9
2019-Dec-10 13:00N 41°31' W 070°40'2274.5
2019-Dec-10 13:00N 41°30' W 070°42'2 3.9 210 / 101009.5 11.7 9.8
2019-Dec-10 12:30N 41°31' W 070°40'2 3.8
2019-Dec-10 12:00N 41°30' W 070°42'2 3.9 230 / 171009.0 12.910.8
2019-Dec-10 11:30N 41°31' W 070°40'2 3.8
2019-Dec-10 11:00N 41°30' W 070°42'2 3.9 230 / 151009.0 12.410.5
2019-Dec-10 10:30N 41°31' W 070°40'2 3.8
2019-Dec-10 10:00N 41°30' W 070°42'2 3.9 230 / 221008.3 12.410.3
2019-Dec-10 09:30N 41°31' W 070°40'0 0.0
2019-Dec-10 09:00N 41°31' W 070°40'2274.9
2019-Dec-10 09:00N 41°30' W 070°42'0 0.0 210 / 111008.2 11.710.0
2019-Dec-10 08:00N 41°30' W 070°42'0 0.0 210 / 81008.3 11.810.2
2019-Dec-10 07:00N 41°30' W 070°42'2 3.9 230 / 181008.6 11.910.2
2019-Dec-10 06:30N 41°31' W 070°40'2 3.8
2019-Dec-10 06:00N 41°30' W 070°42'0 0.0 230 / 161008.1 11.810.3
2019-Dec-10 05:00N 41°30' W 070°42'2 3.9 210 / 171007.9 13.111.7
2019-Dec-10 04:30N 41°31' W 070°40'2 3.8
2019-Dec-10 04:00N 41°30' W 070°42'2 3.9 190 / 141008.8 13.612.1
2019-Dec-10 03:30N 41°31' W 070°40'0 0.0
2019-Dec-10 03:00N 41°31' W 070°40'2274.9
2019-Dec-10 03:00N 41°30' W 070°42'2 1.9 200 / 141009.8 13.111.7
2019-Dec-10 02:00N 41°31' W 070°40'2274.9
2019-Dec-10 02:00N 41°30' W 070°42'0 0.0 190 / 161010.3 13.011.6
2019-Dec-10 01:00N 41°30' W 070°42'0 0.0 190 / 121011.7 12.110.8
2019-Dec-10 00:00N 41°30' W 070°42'0 0.0 220 / 161012.5 12.210.6
2019-Dec-09 23:00N 41°30' W 070°42'2 1.9 210 / 91013.1 11.710.2
2019-Dec-09 22:00N 41°31' W 070°40'2275.6
2019-Dec-09 22:00N 41°30' W 070°42'2 1.9 190 / 181013.8 11.2 9.7
2019-Dec-09 21:00N 41°31' W 070°40'2274.9
2019-Dec-09 21:00N 41°30' W 070°42'2 3.9 180 / 121015.2 11.6 9.9
2019-Dec-09 20:30N 41°31' W 070°40'0 0.0
2019-Dec-09 20:00N 41°31' W 070°40'2274.9
2019-Dec-09 20:00N 41°30' W 070°42'0 0.0 170 / 161016.3 11.6 9.4
2019-Dec-09 19:00N 41°30' W 070°42'0 0.0 170 / 141017.5 11.7 9.4
2019-Dec-09 18:00N 41°30' W 070°42'244.3 170 / 161018.0 11.6 9.6
2019-Dec-09 17:57N 41°31' W 070°40'2 2.0
2019-Dec-09 17:00N 41°30' W 070°42'0 0.0 170 / 171019.9 11.1 9.3
2019-Dec-09 16:00N 41°30' W 070°42'0 0.0 180 / 161021.0 11.3 9.3
2019-Dec-09 15:00N 41°30' W 070°42'0 0.0 170 / 131022.5 10.6 8.8
2019-Dec-09 14:00N 41°30' W 070°42'0 0.0 140 / 81023.6 10.0 8.5
2019-Dec-09 13:00N 41°30' W 070°42'0 0.0 180 / 101024.1 9.3 7.7
2019-Dec-09 12:00N 41°30' W 070°42'0 0.0 190 / 71024.4 9.5 7.3
2019-Dec-09 11:00N 41°30' W 070°42'0 0.0 180 / 91024.9 8.7 6.7
2019-Dec-09 10:00N 41°30' W 070°42'0 0.0 160 / 61025.5 9.0 6.2
2019-Dec-09 09:00N 41°30' W 070°42'0 0.0 150 / 41025.9 8.1 5.1
2019-Dec-09 08:00N 41°30' W 070°42'2 1.9 190 / 41026.5 7.8 4.4
2019-Dec-09 07:00N 41°31' W 070°40'2274.9
2019-Dec-09 07:00N 41°30' W 070°42'0 0.0 190 / 51027.1 7.8 3.3
2019-Dec-09 06:00N 41°30' W 070°42'0 0.0 180 / 61028.2 7.6 2.7
2019-Dec-09 05:00N 41°30' W 070°42'2 3.9 180 / 91028.3 7.5 2.1
2019-Dec-09 04:30N 41°31' W 070°40'2 3.8
2019-Dec-09 04:00N 41°30' W 070°42'2 3.9 200 / 91029.5 7.2 2.0
2019-Dec-09 03:30N 41°31' W 070°40'2 3.8
2019-Dec-09 03:00N 41°30' W 070°42'0 0.0 190 / 81029.5 6.7 1.7
2019-Dec-09 02:00N 41°30' W 070°42'0 0.0 170 / 81029.8 6.2 1.0
2019-Dec-09 01:00N 41°30' W 070°42'0 0.0 170 / 61030.7 5.7 0.7
2019-Dec-09 00:00N 41°30' W 070°42'0 0.0 180 / 111031.1 4.8-0.2
2019-Dec-08 23:00N 41°30' W 070°42'2 3.5 190 / 111031.6 4.3-1.5
2019-Dec-08 22:27N 41°31' W 070°40'2 4.2
2019-Dec-08 22:00N 41°30' W 070°42'0 0.0 180 / 111031.9 3.8-2.1
2019-Dec-08 21:00N 41°30' W 070°42'2 3.2 200 / 71032.1 3.3-3.3
2019-Dec-08 20:24N 41°31' W 070°40'0 0.0
2019-Dec-08 20:00N 41°31' W 070°40'2274.9
2019-Dec-08 20:00N 41°30' W 070°42'0 0.0 200 / 91032.0 2.8-4.0
2019-Dec-08 19:00N 41°30' W 070°42'2 1.9 180 / 51032.2 2.5-4.6
2019-Dec-08 18:00N 41°31' W 070°40'2274.5
2019-Dec-08 18:00N 41°30' W 070°42'2 1.9 230 / 81032.6 1.6-6.2
2019-Dec-08 17:00N 41°31' W 070°40'2274.5
2019-Dec-08 17:00N 41°30' W 070°42'0 0.0 190 / 21033.2 1.3-6.9
2019-Dec-08 16:00N 41°30' W 070°42'0 0.0 210 / 11034.0 0.5-7.3
2019-Dec-08 15:00N 41°30' W 070°42'0 0.0 250 / 41034.7 -0.9-9.4
2019-Dec-08 14:00N 41°30' W 070°42'2 1.9 290 / 21035.0 -1.3-10.0
2019-Dec-08 13:00N 41°31' W 070°40'2274.5
2019-Dec-08 13:00N 41°30' W 070°42'0 0.0 340 / 21034.7 -2.1-9.9
2019-Dec-08 12:00N 41°30' W 070°42'2 1.9 010 / 21034.0 -3.2-8.9
2019-Dec-08 11:00N 41°31' W 070°40'2274.9
2019-Dec-08 11:00N 41°30' W 070°42'2 1.9 320 / 31033.4 -2.5-9.3
2019-Dec-08 10:00N 41°31' W 070°40'2274.9
2019-Dec-08 10:00N 41°30' W 070°42'2 1.9 010 / 61033.0 -2.5-9.6
2019-Dec-08 09:00N 41°31' W 070°40'2275.6
2019-Dec-08 09:00N 41°30' W 070°42'0 0.0 350 / 21032.9 -2.4-10.1
2019-Dec-08 08:00N 41°30' W 070°42'0 0.0 350 / 81032.7 -2.2-10.6
2019-Dec-08 07:00N 41°30' W 070°42'0 0.0 010 / 51032.5 -1.9-10.5
2019-Dec-08 06:00N 41°30' W 070°42'0 0.0 020 / 31031.9 -1.7-10.4
2019-Dec-08 05:00N 41°30' W 070°42'0 0.0 340 / 91031.6 -1.4-9.8
2019-Dec-08 04:00N 41°30' W 070°42'2 3.9 360 / 51031.5 -1.3-9.9
2019-Dec-08 03:30N 41°31' W 070°40'0 0.0
2019-Dec-08 03:00N 41°31' W 070°40'2274.5
2019-Dec-08 03:00N 41°30' W 070°42'2 3.9 340 / 121031.3 -1.1-10.4
2019-Dec-08 02:30N 41°31' W 070°40'2 3.8
2019-Dec-08 02:00N 41°30' W 070°42'2 3.9 340 / 71030.7 -0.8-10.4
2019-Dec-08 01:30N 41°31' W 070°40'2 3.8
2019-Dec-08 01:00N 41°30' W 070°42'0 0.0 020 / 61030.2 -0.4-9.8
2019-Dec-08 00:00N 41°30' W 070°42'244.3 350 / 51029.7 0.1-9.8
2019-Dec-07 23:57N 41°31' W 070°40'0 0.0
2019-Dec-07 23:30N 41°31' W 070°40'2 3.8
2019-Dec-07 23:00N 41°30' W 070°42'0 0.0 320 / 91028.8 0.2-9.6
2019-Dec-07 22:00N 41°30' W 070°42'2 3.9 320 / 101027.9 0.8-9.3
2019-Dec-07 21:30N 41°31' W 070°40'2 3.8
2019-Dec-07 21:00N 41°30' W 070°42'2 3.9 310 / 61027.2 1.4-9.4
2019-Dec-07 20:30N 41°31' W 070°40'2 3.8
2019-Dec-07 20:00N 41°30' W 070°42'0 0.0 330 / 51026.5 1.6-9.9
2019-Dec-07 19:00N 41°30' W 070°42'0 0.0 350 / 31025.7 1.3-8.7
2019-Dec-07 18:00N 41°30' W 070°42'0 0.0 350 / 31025.6 0.9-8.7
2019-Dec-07 17:00N 41°30' W 070°42'0 0.0 310 / 91025.7 0.3-8.9
2019-Dec-07 16:00N 41°30' W 070°42'2 3.9 300 / 71026.1 -0.2-9.3
2019-Dec-07 15:30N 41°31' W 070°40'2 3.8
2019-Dec-07 15:00N 41°30' W 070°42'2 3.9 320 / 141026.1 -0.7-8.8
2019-Dec-07 14:30N 41°31' W 070°40'0 0.0
2019-Dec-07 14:00N 41°31' W 070°40'2274.9
2019-Dec-07 14:00N 41°30' W 070°42'0 0.0 320 / 151025.7 -1.0-8.6
2019-Dec-07 13:00N 41°30' W 070°42'0 0.0 330 / 81025.1 -1.0-7.8
2019-Dec-07 12:00N 41°30' W 070°42'0 0.0 330 / 91024.2 -1.0-7.3
2019-Dec-07 11:00N 41°30' W 070°42'2 3.9 330 / 81023.2 -0.7-6.4
2019-Dec-07 10:30N 41°31' W 070°40'2 3.8
2019-Dec-07 10:00N 41°30' W 070°42'2 3.9 330 / 61022.0 -0.0-5.7
2019-Dec-07 09:30N 41°31' W 070°40'2 3.8
2019-Dec-07 09:00N 41°30' W 070°42'2 3.9 340 / 81021.0 0.4-5.2
2019-Dec-07 08:30N 41°31' W 070°40'2 3.8
2019-Dec-07 08:00N 41°30' W 070°42'2 1.9 350 / 71020.3 0.8-5.2
2019-Dec-07 07:00N 41°31' W 070°40'2274.5
2019-Dec-07 07:00N 41°30' W 070°42'2 3.9 350 / 101019.3 1.3-4.9
2019-Dec-07 06:30N 41°31' W 070°40'2 3.8
2019-Dec-07 06:00N 41°30' W 070°42'0 0.0 330 / 71018.2 1.9-4.2
2019-Dec-07 05:00N 41°30' W 070°42'2 3.9 350 / 141017.1 3.6-1.8
2019-Dec-07 04:30N 41°31' W 070°40'2 3.8
2019-Dec-07 04:00N 41°30' W 070°42'2 1.9 310 / 121015.9 5.9-1.5
2019-Dec-07 03:00N 41°31' W 070°40'2274.9
2019-Dec-07 03:00N 41°30' W 070°42'0 0.0 290 / 171014.9 7.2 0.3
2019-Dec-07 02:00N 41°30' W 070°42'2 1.9 280 / 191013.8 8.2 1.1
2019-Dec-07 01:00N 41°31' W 070°40'2275.6
2019-Dec-07 01:00N 41°30' W 070°42'2 1.9 260 / 171013.2 8.9 3.8
2019-Dec-07 00:00N 41°31' W 070°40'2274.5
2019-Dec-07 00:00N 41°30' W 070°42'2 3.9 240 / 211012.9 9.6 4.2
2019-Dec-06 23:30N 41°31' W 070°40'2 3.8
2019-Dec-06 23:00N 41°30' W 070°42'0 0.0 230 / 231012.8 8.9 3.6
2019-Dec-06 22:00N 41°30' W 070°42'2 3.9 220 / 161013.6 8.6 3.0
2019-Dec-06 21:30N 41°31' W 070°40'0 0.0
2019-Dec-06 21:00N 41°31' W 070°40'2274.5
2019-Dec-06 21:00N 41°30' W 070°42'2 1.9 230 / 181014.5 7.7 1.6
2019-Dec-06 20:00N 41°31' W 070°40'2274.9
2019-Dec-06 20:00N 41°30' W 070°42'2 3.9 220 / 91015.4 6.0 1.1
2019-Dec-06 19:30N 41°31' W 070°40'2 3.8
2019-Dec-06 19:00N 41°30' W 070°42'2 1.9 230 / 101016.2 4.6-1.9
2019-Dec-06 18:00N 41°31' W 070°40'2274.9
2019-Dec-06 18:00N 41°30' W 070°42'2 1.9 230 / 171017.0 3.9-3.4
2019-Dec-06 17:00N 41°31' W 070°40'2274.9
2019-Dec-06 17:00N 41°30' W 070°42'2 1.9 230 / 121018.1 3.5-4.6
2019-Dec-06 16:00N 41°31' W 070°40'2274.5
2019-Dec-06 16:00N 41°30' W 070°42'0 0.0 260 / 131019.0 2.5-6.3
2019-Dec-06 15:00N 41°30' W 070°42'2 3.9 260 / 141020.4 2.1-6.3
2019-Dec-06 14:30N 41°31' W 070°40'0 0.0
2019-Dec-06 14:00N 41°31' W 070°40'2274.9
2019-Dec-06 14:00N 41°30' W 070°42'2 1.9 250 / 161020.3 1.6-6.3
2019-Dec-06 13:00N 41°31' W 070°40'2274.5
2019-Dec-06 13:00N 41°30' W 070°42'2 3.9 260 / 131019.7 1.2-6.6
2019-Dec-06 12:30N 41°31' W 070°40'2 3.8
2019-Dec-06 12:00N 41°30' W 070°42'220.5 290 / 151019.7 0.9-6.7
2019-Dec-06 11:54N 41°31' W 070°40'0 0.0
2019-Dec-06 11:00N 41°31' W 070°40'2274.9
2019-Dec-06 11:00N 41°30' W 070°42'0 0.0 290 / 161019.2 0.6-6.9
2019-Dec-06 10:00N 41°30' W 070°42'0 0.0 290 / 171018.6 0.5-6.9
2019-Dec-06 09:00N 41°30' W 070°42'0 0.0 280 / 241018.0 0.4-7.9
2019-Dec-06 08:00N 41°30' W 070°42'0 0.0 290 / 221017.6 0.6-8.0
2019-Dec-06 07:00N 41°30' W 070°42'244.3 290 / 231017.0 0.7-8.5
2019-Dec-06 06:57N 41°31' W 070°40'0 0.0
2019-Dec-06 06:30N 41°31' W 070°40'2 3.8
2019-Dec-06 06:00N 41°30' W 070°42'0 0.0 290 / 271015.8 0.9-8.4
2019-Dec-06 05:00N 41°30' W 070°42'2 3.9 290 / 191014.9 1.2-7.7
2019-Dec-06 04:30N 41°31' W 070°40'2 3.8
2019-Dec-06 04:00N 41°30' W 070°42'0 0.0 290 / 231013.9 1.6-7.7
2019-Dec-06 03:00N 41°30' W 070°42'2 1.9 300 / 201013.0 2.0-7.2
2019-Dec-06 02:00N 41°31' W 070°40'2274.5
2019-Dec-06 02:00N 41°30' W 070°42'2 3.9 270 / 241011.8 2.7-6.6
2019-Dec-06 01:30N 41°31' W 070°40'2 3.8
2019-Dec-06 01:00N 41°30' W 070°42'0 0.0 290 / 241011.0 3.1-7.5
2019-Dec-06 00:00N 41°30' W 070°42'0 0.0 290 / 311010.4 3.9-6.1
2019-Dec-05 23:00N 41°30' W 070°42'2 3.9 290 / 171009.4 4.5-4.8
2019-Dec-05 22:30N 41°31' W 070°40'2 3.8
2019-Dec-05 22:00N 41°30' W 070°42'0 0.0 280 / 201007.6 5.0-5.0
2019-Dec-05 21:00N 41°30' W 070°42'0 0.0 290 / 231006.2 5.5-4.2
2019-Dec-05 20:00N 41°30' W 070°42'2 3.9 280 / 171005.0 5.6-3.3
2019-Dec-05 19:30N 41°31' W 070°40'2 3.8
2019-Dec-05 19:00N 41°30' W 070°42'2 3.9 300 / 201003.8 5.7-3.0
2019-Dec-05 18:30N 41°31' W 070°40'2 3.8
2019-Dec-05 18:00N 41°30' W 070°42'2 3.9 280 / 161003.3 5.8-2.2
2019-Dec-05 17:30N 41°31' W 070°40'2 3.8
2019-Dec-05 17:00N 41°30' W 070°42'2 3.9 290 / 161003.0 5.4-1.2
2019-Dec-05 16:30N 41°31' W 070°40'2 3.8
2019-Dec-05 16:00N 41°30' W 070°42'2 3.9 290 / 151002.8 4.8-1.5
2019-Dec-05 15:30N 41°31' W 070°40'2 3.8
2019-Dec-05 15:00N 41°30' W 070°42'0 0.0 280 / 141003.1 3.8-1.3
2019-Dec-05 14:00N 41°30' W 070°42'2 3.9 290 / 111002.4 3.4-1.3
2019-Dec-05 13:30N 41°31' W 070°40'0 0.0
2019-Dec-05 13:00N 41°31' W 070°40'2274.9
2019-Dec-05 13:00N 41°30' W 070°42'0 0.0 290 / 131001.9 3.4-1.1
2019-Dec-05 12:00N 41°30' W 070°42'0 0.0 290 / 121001.2 3.1-0.9
2019-Dec-05 11:00N 41°30' W 070°42'0 0.0 280 / 111000.4 2.8-0.8
2019-Dec-05 10:00N 41°30' W 070°42'2 1.9 290 / 9999.5 2.8-1.3
2019-Dec-05 09:00N 41°31' W 070°40'2274.9
2019-Dec-05 09:00N 41°30' W 070°42'   280 / 7999.0 3.2-1.0
Track history (hours):
 
Tides and Currents Weather Stations Pressure Air Temp Water Temp Dewpoint Dewpoint Depression Visibility Wind Speed Wind Dir Waves Ship Positions

Oceanographic research ship Neil Armstrong (United States)

Owner: Woods Hole Oceanographic Institution, Woods Hole, MA. More information available from US FCC via Universal Licensing System and Coast Guard Vessel Documentation Center.

Last reported at 2019-Dec-15 09:00 UTC. Time now 2019-Dec-15 10:57 UTC.
Position N 41°30' W 070°42'.

Length 72 m; draft 4.4 m.

Type: Ship. MMSI: 338767000.

Wind from 260 at 24 knots

Barometer 995.2 mb
Air temperature 6.6 ° C
Dewpoint 1.8 ° C

Date/timePositionNaut miles runAvg speedWind from/ knotsBaromVisibWave heightAir tempDewpointWater temp
2019-Dec-15 09:00N 41°30' W 070°42'0 0.0 260 / 24995.2 6.6 1.8
2019-Dec-15 08:00N 41°30' W 070°42'2 3.9 260 / 22993.8 7.4 2.8
2019-Dec-15 07:30N 41°31' W 070°40'2 3.8
2019-Dec-15 07:00N 41°30' W 070°42'0 0.0 240 / 28992.6 8.7 4.0
2019-Dec-15 06:00N 41°30' W 070°42'0 0.0 240 / 20991.8 9.4 4.6
2019-Dec-15 05:00N 41°30' W 070°42'2 1.9 230 / 28991.1 10.3 5.6
2019-Dec-15 04:00N 41°31' W 070°40'2274.9
2019-Dec-15 04:00N 41°30' W 070°42'2 3.9 230 / 26990.5 10.2 6.5
2019-Dec-15 03:30N 41°31' W 070°40'0 0.0
2019-Dec-15 03:00N 41°31' W 070°40'2274.5
2019-Dec-15 03:00N 41°30' W 070°42'0 0.0 230 / 20990.1 11.0 8.4
2019-Dec-15 02:00N 41°30' W 070°42'2 1.9 220 / 17990.0 10.5 8.9
2019-Dec-15 01:00N 41°31' W 070°40'2274.9
2019-Dec-15 01:00N 41°30' W 070°42'2 1.9 210 / 7989.7 12.811.5
2019-Dec-15 00:00N 41°31' W 070°40'2274.5
2019-Dec-15 00:00N 41°30' W 070°42'2 3.9 180 / 10990.2 12.911.4
2019-Dec-14 23:30N 41°31' W 070°40'2 3.8
2019-Dec-14 23:00N 41°30' W 070°42'0 0.0 180 / 21990.2 13.211.3
2019-Dec-14 22:00N 41°30' W 070°42'0 0.0 190 / 20991.2 13.612.1
2019-Dec-14 21:00N 41°30' W 070°42'0 0.0 180 / 17992.5 13.011.7
2019-Dec-14 20:00N 41°30' W 070°42'0 0.0 210 / 10993.3 12.711.5
2019-Dec-14 19:00N 41°30' W 070°42'0 0.0 200 / 4993.6 12.611.4
2019-Dec-14 18:00N 41°30' W 070°42'2 3.9 180 / 7995.1 12.711.4
2019-Dec-14 17:30N 41°31' W 070°40'2 3.8
2019-Dec-14 17:00N 41°30' W 070°42'0 0.0 220 / 4995.9 13.312.0
2019-Dec-14 16:00N 41°30' W 070°42'2 3.9 180 / 7997.0 13.211.8
2019-Dec-14 15:30N 41°31' W 070°40'0 0.0
2019-Dec-14 15:00N 41°31' W 070°40'2274.9
2019-Dec-14 15:00N 41°30' W 070°42'2 3.9 190 / 15997.4 13.011.6
2019-Dec-14 14:30N 41°31' W 070°40'2 3.8
2019-Dec-14 14:00N 41°30' W 070°42'0 0.0 160 / 17999.7 15.013.7
2019-Dec-14 13:00N 41°30' W 070°42'2 3.9 150 / 111002.0 13.211.9
2019-Dec-14 12:30N 41°31' W 070°40'2 3.8
2019-Dec-14 12:00N 41°30' W 070°42'0 0.0 130 / 91003.4 12.511.3
2019-Dec-14 11:00N 41°30' W 070°42'2 3.9 120 / 111004.9 10.9 9.5
2019-Dec-14 10:30N 41°31' W 070°40'2 3.8
2019-Dec-14 10:00N 41°30' W 070°42'2 3.9 120 / 161006.3 11.1 9.9
2019-Dec-14 09:30N 41°31' W 070°40'2 3.8
2019-Dec-14 09:00N 41°30' W 070°42'0 0.0 120 / 211008.2 10.1 8.8
2019-Dec-14 08:00N 41°30' W 070°42'2 1.9 130 / 201010.5 9.5 8.2
2019-Dec-14 07:00N 41°31' W 070°40'2274.9
2019-Dec-14 07:00N 41°30' W 070°42'2 3.9 090 / 121013.3 8.8 7.4
2019-Dec-14 06:30N 41°31' W 070°40'0 0.0
2019-Dec-14 06:00N 41°31' W 070°40'2274.9
2019-Dec-14 06:00N 41°30' W 070°42'2 1.9 120 / 81015.4 8.5 7.0
2019-Dec-14 05:00N 41°31' W 070°40'2274.5
2019-Dec-14 05:00N 41°30' W 070°42'2 3.9 110 / 131017.2 8.4 6.8
2019-Dec-14 04:30N 41°31' W 070°40'2 3.8
2019-Dec-14 04:00N 41°30' W 070°42'2 3.9 110 / 141019.1 8.3 6.7
2019-Dec-14 03:30N 41°31' W 070°40'0 0.0
2019-Dec-14 03:00N 41°31' W 070°40'2274.5
2019-Dec-14 03:00N 41°30' W 070°42'0 0.0 090 / 71020.7 7.4 5.6
2019-Dec-14 02:00N 41°30' W 070°42'2 3.9 100 / 71022.1 8.0 6.0
2019-Dec-14 01:30N 41°31' W 070°40'2 3.8
2019-Dec-14 01:00N 41°30' W 070°42'0 0.0 090 / 71023.4 8.3 6.2
2019-Dec-14 00:00N 41°30' W 070°42'2 3.9 120 / 121024.7 8.1 6.0
2019-Dec-13 23:30N 41°31' W 070°40'2 3.8
2019-Dec-13 23:00N 41°30' W 070°42'2 3.9 110 / 81025.3 7.8 5.6
2019-Dec-13 22:30N 41°31' W 070°40'2 3.8
2019-Dec-13 22:00N 41°30' W 070°42'0 0.0 100 / 101026.3 7.7 5.2
2019-Dec-13 21:00N 41°30' W 070°42'2 3.9 070 / 71026.8 7.5 4.6
2019-Dec-13 20:30N 41°31' W 070°40'2 3.8
2019-Dec-13 20:00N 41°30' W 070°42'0 0.0 090 / 81027.6 7.6 3.9
2019-Dec-13 19:00N 41°30' W 070°42'2 3.9 070 / 51028.5 7.5 3.6
2019-Dec-13 18:30N 41°31' W 070°40'2 3.8
2019-Dec-13 18:00N 41°30' W 070°42'2 1.9 120 / 71029.4 8.1 3.2
2019-Dec-13 17:00N 41°31' W 070°40'2275.6
2019-Dec-13 17:00N 41°30' W 070°42'2 1.9 120 / 71029.8 7.7 2.8
2019-Dec-13 16:00N 41°31' W 070°40'2274.9
2019-Dec-13 16:00N 41°30' W 070°42'0 0.0 120 / 111031.2 7.2 2.4
2019-Dec-13 15:00N 41°30' W 070°42'0 0.0 130 / 81032.1 6.4 1.3
2019-Dec-13 14:00N 41°30' W 070°42'2 1.9 130 / 81032.6 5.3 0.5
2019-Dec-13 13:00N 41°31' W 070°40'2274.9
2019-Dec-13 13:00N 41°30' W 070°42'0 0.0 150 / 91033.4 4.2-1.0
2019-Dec-13 12:00N 41°30' W 070°42'0 0.0 120 / 101034.0 3.7-2.1
2019-Dec-13 11:00N 41°30' W 070°42'0 0.0 130 / 141034.4 3.5-2.4
2019-Dec-13 10:00N 41°30' W 070°42'0 0.0 130 / 81035.7 2.7-3.0
2019-Dec-13 09:00N 41°30' W 070°42'2 3.9 130 / 71036.6 2.3-3.2
2019-Dec-13 08:30N 41°31' W 070°40'2 3.8
2019-Dec-13 08:00N 41°30' W 070°42'2 1.9 110 / 51037.5 1.6-4.1
2019-Dec-13 07:00N 41°31' W 070°40'2274.9
2019-Dec-13 07:00N 41°30' W 070°42'2 3.9 120 / 61037.8 1.1-4.7
2019-Dec-13 06:30N 41°31' W 070°40'0 0.0
2019-Dec-13 06:00N 41°31' W 070°40'2274.5
2019-Dec-13 06:00N 41°30' W 070°42'0 0.0 120 / 61038.1 0.8-5.7
2019-Dec-13 05:00N 41°30' W 070°42'2 3.9 120 / 41038.7 0.1-6.6
2019-Dec-13 04:30N 41°31' W 070°40'2 3.8
2019-Dec-13 04:00N 41°30' W 070°42'0 0.0 130 / 41039.2 -0.7-7.0
2019-Dec-13 03:00N 41°30' W 070°42'2 1.9 090 / 11039.9 -1.4-9.7
2019-Dec-13 02:00N 41°31' W 070°40'2274.5
2019-Dec-13 02:00N 41°30' W 070°42'0 0.0 070 / 31039.8 -1.6-10.1
2019-Dec-13 01:00N 41°30' W 070°42'0 0.0 080 / 31040.3 -1.4-9.1
2019-Dec-13 00:00N 41°30' W 070°42'2 3.9 090 / 41040.4 -1.9-9.4
2019-Dec-12 23:30N 41°31' W 070°40'2 3.8
2019-Dec-12 23:00N 41°30' W 070°42'0 0.0 080 / 41040.2 -1.8-9.3
2019-Dec-12 22:00N 41°30' W 070°42'0 0.0 090 / 31039.7 -1.6-8.7
2019-Dec-12 21:00N 41°30' W 070°42'2 1.9 340 / 31039.5 -0.7-9.0
2019-Dec-12 20:00N 41°31' W 070°40'2274.9
2019-Dec-12 20:00N 41°30' W 070°42'0 0.0 320 / 31039.4 -0.7-9.2
2019-Dec-12 19:00N 41°30' W 070°42'0 0.0 340 / 61038.8 -0.7-9.5
2019-Dec-12 18:00N 41°30' W 070°42'0 0.0 310 / 81039.1 -1.1-10.1
2019-Dec-12 17:00N 41°30' W 070°42'0 0.0 320 / 41039.3 -1.7-11.2
2019-Dec-12 16:00N 41°30' W 070°42'2 1.9 340 / 51039.4 -1.9-11.2
2019-Dec-12 15:00N 41°31' W 070°40'2274.9
2019-Dec-12 15:00N 41°30' W 070°42'0 0.0 320 / 91040.1 -2.3-11.4
2019-Dec-12 14:00N 41°30' W 070°42'2 3.9 340 / 101039.6 -2.7-11.1
2019-Dec-12 13:30N 41°31' W 070°40'2 3.8
2019-Dec-12 13:00N 41°30' W 070°42'2 3.9 320 / 151038.7 -2.6-10.0
2019-Dec-12 12:30N 41°31' W 070°40'2 3.8
2019-Dec-12 12:00N 41°30' W 070°42'2 1.9 330 / 81037.1 -2.7-9.4
2019-Dec-12 11:00N 41°31' W 070°40'2275.6
2019-Dec-12 11:00N 41°30' W 070°42'2 3.9 330 / 121036.1 -2.7-9.1
2019-Dec-12 10:30N 41°31' W 070°40'2 3.8
2019-Dec-12 10:00N 41°30' W 070°42'0 0.0 290 / 91034.8 -2.1-8.9
2019-Dec-12 09:00N 41°30' W 070°42'2 4.9 300 / 141033.5 -2.1-9.7
2019-Dec-12 08:36N 41°31' W 070°40'2 3.2
2019-Dec-12 08:00N 41°30' W 070°42'2 3.9 320 / 111032.4 -1.0-9.0
2019-Dec-12 07:30N 41°31' W 070°40'2 3.8
2019-Dec-12 07:00N 41°30' W 070°42'2 1.9 300 / 141031.6 -0.1-6.9
2019-Dec-12 06:00N 41°31' W 070°40'2274.9
2019-Dec-12 06:00N 41°30' W 070°42'0 0.0 290 / 181030.0 0.8-5.7
2019-Dec-12 05:00N 41°30' W 070°42'2 3.5 300 / 171028.6 1.0-4.3
2019-Dec-12 04:27N 41°31' W 070°40'2 4.2
2019-Dec-12 04:00N 41°30' W 070°42'0 0.0 290 / 161027.6 1.7-3.7
2019-Dec-12 03:00N 41°30' W 070°42'2 1.9 270 / 201026.7 2.3-2.7
2019-Dec-12 02:00N 41°31' W 070°40'2274.9
2019-Dec-12 02:00N 41°30' W 070°42'2 3.9 290 / 191026.3 1.9-3.2
2019-Dec-12 01:30N 41°31' W 070°40'2 3.8
2019-Dec-12 01:00N 41°30' W 070°42'2 3.9 270 / 181026.5 1.3-4.8
2019-Dec-12 00:30N 41°31' W 070°40'0 0.0
2019-Dec-12 00:00N 41°31' W 070°40'2274.5
2019-Dec-12 00:00N 41°30' W 070°42'0 0.0 290 / 131026.1 1.1-5.0
2019-Dec-11 23:00N 41°30' W 070°42'2 3.9 280 / 121025.3 1.0-5.3
2019-Dec-11 22:30N 41°31' W 070°40'2 3.8
2019-Dec-11 22:00N 41°30' W 070°42'2 1.9 280 / 111024.5 0.2-4.9
2019-Dec-11 21:00N 41°31' W 070°40'2274.9
2019-Dec-11 21:00N 41°30' W 070°42'0 0.0 270 / 61023.6 -0.3-3.6
2019-Dec-11 20:00N 41°30' W 070°42'2 3.9 290 / 71023.2 -0.7-3.1
2019-Dec-11 19:30N 41°31' W 070°40'2 3.8
2019-Dec-11 19:00N 41°30' W 070°42'0 0.0 300 / 61022.6 -0.9-2.7
2019-Dec-11 18:00N 41°30' W 070°42'0 0.0 310 / 71022.9 -1.3-2.8
2019-Dec-11 17:00N 41°30' W 070°42'0 0.0 310 / 131024.2 -1.4-2.8
2019-Dec-11 16:00N 41°30' W 070°42'0 0.0 310 / 91024.0 -1.0-2.4
2019-Dec-11 15:00N 41°30' W 070°42'0 0.0 300 / 141024.7 -0.7-2.1
2019-Dec-11 14:00N 41°30' W 070°42'0 0.0 320 / 81024.0 -0.2-1.6
2019-Dec-11 13:00N 41°30' W 070°42'0 0.0 340 / 101023.1 0.2-1.4
2019-Dec-11 12:00N 41°30' W 070°42'2 1.9 350 / 101022.2 0.4-1.5
2019-Dec-11 11:00N 41°31' W 070°40'2274.9
2019-Dec-11 11:00N 41°30' W 070°42'0 0.0 010 / 131021.0 0.7-1.3
2019-Dec-11 10:00N 41°30' W 070°42'2 1.9 010 / 131020.6 2.0-0.0
2019-Dec-11 09:00N 41°31' W 070°40'2274.5
2019-Dec-11 09:00N 41°30' W 070°42'0 0.0 340 / 71019.5 3.7 1.9
2019-Dec-11 08:00N 41°30' W 070°42'2 3.9 320 / 101018.7 4.2 1.6
2019-Dec-11 07:30N 41°31' W 070°40'2 3.8
2019-Dec-11 07:00N 41°30' W 070°42'2 1.9 340 / 61018.1 4.8 1.8
2019-Dec-11 06:00N 41°31' W 070°40'2274.5
2019-Dec-11 06:00N 41°30' W 070°42'0 0.0 320 / 71017.5 5.4 3.0
2019-Dec-11 05:00N 41°30' W 070°42'2 3.9 330 / 71017.5 6.6 4.2
2019-Dec-11 04:30N 41°31' W 070°40'2 3.8
2019-Dec-11 04:00N 41°30' W 070°42'2 3.9 310 / 31017.0 6.9 4.4
2019-Dec-11 03:30N 41°31' W 070°40'2 3.8
2019-Dec-11 03:00N 41°30' W 070°42'0 0.0 310 / 51015.5 7.2 4.8
2019-Dec-11 02:00N 41°30' W 070°42'0 0.0 250 / 171012.9 11.6 8.7
2019-Dec-11 01:00N 41°30' W 070°42'0 0.0 260 / 61012.9 10.7 8.8
2019-Dec-11 00:00N 41°30' W 070°42'2 1.9 240 / 181012.4 12.1 9.4
2019-Dec-10 23:00N 41°31' W 070°40'2274.9
2019-Dec-10 23:00N 41°30' W 070°42'2 1.9 240 / 201011.5 11.8 9.6
2019-Dec-10 22:00N 41°31' W 070°40'2274.9
2019-Dec-10 22:00N 41°30' W 070°42'0 0.0 220 / 111010.4 10.8 9.2
2019-Dec-10 21:00N 41°30' W 070°42'2 3.9 220 / 111009.7 10.7 9.1
2019-Dec-10 20:30N 41°31' W 070°40'2 3.8
2019-Dec-10 20:00N 41°30' W 070°42'0 0.0 230 / 191009.4 12.810.7
2019-Dec-10 19:00N 41°30' W 070°42'2 3.9 230 / 191009.3 11.910.2
2019-Dec-10 18:30N 41°31' W 070°40'2 3.8
2019-Dec-10 18:00N 41°30' W 070°42'0 0.0 220 / 141008.1 11.3 9.6
2019-Dec-10 17:00N 41°30' W 070°42'0 0.0 210 / 81008.8 11.1 9.5
2019-Dec-10 16:00N 41°30' W 070°42'0 0.0 220 / 141009.7 11.4 9.7
2019-Dec-10 15:00N 41°30' W 070°42'2 3.9 210 / 81010.1 11.610.0
2019-Dec-10 14:30N 41°31' W 070°40'2 3.8
2019-Dec-10 14:00N 41°30' W 070°42'2 1.9 210 / 71009.9 11.4 9.9
2019-Dec-10 13:00N 41°31' W 070°40'2274.5
2019-Dec-10 13:00N 41°30' W 070°42'2 3.9 210 / 101009.5 11.7 9.8
2019-Dec-10 12:30N 41°31' W 070°40'2 3.8
2019-Dec-10 12:00N 41°30' W 070°42'2 3.9 230 / 171009.0 12.910.8
2019-Dec-10 11:30N 41°31' W 070°40'2 3.8
2019-Dec-10 11:00N 41°30' W 070°42'2 3.9 230 / 151009.0 12.410.5
2019-Dec-10 10:30N 41°31' W 070°40'2 3.8
2019-Dec-10 10:00N 41°30' W 070°42'2 3.9 230 / 221008.3 12.410.3
2019-Dec-10 09:30N 41°31' W 070°40'0 0.0
2019-Dec-10 09:00N 41°31' W 070°40'2274.9
2019-Dec-10 09:00N 41°30' W 070°42'0 0.0 210 / 111008.2 11.710.0
2019-Dec-10 08:00N 41°30' W 070°42'0 0.0 210 / 81008.3 11.810.2
2019-Dec-10 07:00N 41°30' W 070°42'2 3.9 230 / 181008.6 11.910.2
2019-Dec-10 06:30N 41°31' W 070°40'2 3.8
2019-Dec-10 06:00N 41°30' W 070°42'0 0.0 230 / 161008.1 11.810.3
2019-Dec-10 05:00N 41°30' W 070°42'2 3.9 210 / 171007.9 13.111.7
2019-Dec-10 04:30N 41°31' W 070°40'2 3.8
2019-Dec-10 04:00N 41°30' W 070°42'2 3.9 190 / 141008.8 13.612.1
2019-Dec-10 03:30N 41°31' W 070°40'0 0.0
2019-Dec-10 03:00N 41°31' W 070°40'2274.9
2019-Dec-10 03:00N 41°30' W 070°42'2 1.9 200 / 141009.8 13.111.7
2019-Dec-10 02:00N 41°31' W 070°40'2274.9
2019-Dec-10 02:00N 41°30' W 070°42'0 0.0 190 / 161010.3 13.011.6
2019-Dec-10 01:00N 41°30' W 070°42'0 0.0 190 / 121011.7 12.110.8
2019-Dec-10 00:00N 41°30' W 070°42'0 0.0 220 / 161012.5 12.210.6
2019-Dec-09 23:00N 41°30' W 070°42'2 1.9 210 / 91013.1 11.710.2
2019-Dec-09 22:00N 41°31' W 070°40'2275.6
2019-Dec-09 22:00N 41°30' W 070°42'2 1.9 190 / 181013.8 11.2 9.7
2019-Dec-09 21:00N 41°31' W 070°40'2274.9
2019-Dec-09 21:00N 41°30' W 070°42'2 3.9 180 / 121015.2 11.6 9.9
2019-Dec-09 20:30N 41°31' W 070°40'0 0.0
2019-Dec-09 20:00N 41°31' W 070°40'2274.9
2019-Dec-09 20:00N 41°30' W 070°42'0 0.0 170 / 161016.3 11.6 9.4
2019-Dec-09 19:00N 41°30' W 070°42'0 0.0 170 / 141017.5 11.7 9.4
2019-Dec-09 18:00N 41°30' W 070°42'244.3 170 / 161018.0 11.6 9.6
2019-Dec-09 17:57N 41°31' W 070°40'2 2.0
2019-Dec-09 17:00N 41°30' W 070°42'0 0.0 170 / 171019.9 11.1 9.3
2019-Dec-09 16:00N 41°30' W 070°42'0 0.0 180 / 161021.0 11.3 9.3
2019-Dec-09 15:00N 41°30' W 070°42'0 0.0 170 / 131022.5 10.6 8.8
2019-Dec-09 14:00N 41°30' W 070°42'0 0.0 140 / 81023.6 10.0 8.5
2019-Dec-09 13:00N 41°30' W 070°42'0 0.0 180 / 101024.1 9.3 7.7
2019-Dec-09 12:00N 41°30' W 070°42'0 0.0 190 / 71024.4 9.5 7.3
2019-Dec-09 11:00N 41°30' W 070°42'0 0.0 180 / 91024.9 8.7 6.7
2019-Dec-09 10:00N 41°30' W 070°42'0 0.0 160 / 61025.5 9.0 6.2
2019-Dec-09 09:00N 41°30' W 070°42'0 0.0 150 / 41025.9 8.1 5.1
2019-Dec-09 08:00N 41°30' W 070°42'2 1.9 190 / 41026.5 7.8 4.4
2019-Dec-09 07:00N 41°31' W 070°40'2274.9
2019-Dec-09 07:00N 41°30' W 070°42'0 0.0 190 / 51027.1 7.8 3.3
2019-Dec-09 06:00N 41°30' W 070°42'0 0.0 180 / 61028.2 7.6 2.7
2019-Dec-09 05:00N 41°30' W 070°42'2 3.9 180 / 91028.3 7.5 2.1
2019-Dec-09 04:30N 41°31' W 070°40'2 3.8
2019-Dec-09 04:00N 41°30' W 070°42'2 3.9 200 / 91029.5 7.2 2.0
2019-Dec-09 03:30N 41°31' W 070°40'2 3.8
2019-Dec-09 03:00N 41°30' W 070°42'0 0.0 190 / 81029.5 6.7 1.7
2019-Dec-09 02:00N 41°30' W 070°42'0 0.0 170 / 81029.8 6.2 1.0
2019-Dec-09 01:00N 41°30' W 070°42'0 0.0 170 / 61030.7 5.7 0.7
2019-Dec-09 00:00N 41°30' W 070°42'0 0.0 180 / 111031.1 4.8-0.2
2019-Dec-08 23:00N 41°30' W 070°42'2 3.5 190 / 111031.6 4.3-1.5
2019-Dec-08 22:27N 41°31' W 070°40'2 4.2
2019-Dec-08 22:00N 41°30' W 070°42'0 0.0 180 / 111031.9 3.8-2.1
2019-Dec-08 21:00N 41°30' W 070°42'2 3.2 200 / 71032.1 3.3-3.3
2019-Dec-08 20:24N 41°31' W 070°40'0 0.0
2019-Dec-08 20:00N 41°31' W 070°40'2274.9
2019-Dec-08 20:00N 41°30' W 070°42'0 0.0 200 / 91032.0 2.8-4.0
2019-Dec-08 19:00N 41°30' W 070°42'2 1.9 180 / 51032.2 2.5-4.6
2019-Dec-08 18:00N 41°31' W 070°40'2274.5
2019-Dec-08 18:00N 41°30' W 070°42'2 1.9 230 / 81032.6 1.6-6.2
2019-Dec-08 17:00N 41°31' W 070°40'2274.5
2019-Dec-08 17:00N 41°30' W 070°42'0 0.0 190 / 21033.2 1.3-6.9
2019-Dec-08 16:00N 41°30' W 070°42'0 0.0 210 / 11034.0 0.5-7.3
2019-Dec-08 15:00N 41°30' W 070°42'0 0.0 250 / 41034.7 -0.9-9.4
2019-Dec-08 14:00N 41°30' W 070°42'2 1.9 290 / 21035.0 -1.3-10.0
2019-Dec-08 13:00N 41°31' W 070°40'2274.5
2019-Dec-08 13:00N 41°30' W 070°42'0 0.0 340 / 21034.7 -2.1-9.9
2019-Dec-08 12:00N 41°30' W 070°42'2 1.9 010 / 21034.0 -3.2-8.9
2019-Dec-08 11:00N 41°31' W 070°40'2274.9
2019-Dec-08 11:00N 41°30' W 070°42'2 1.9 320 / 31033.4 -2.5-9.3
2019-Dec-08 10:00N 41°31' W 070°40'2274.9
2019-Dec-08 10:00N 41°30' W 070°42'2 1.9 010 / 61033.0 -2.5-9.6
2019-Dec-08 09:00N 41°31' W 070°40'2275.6
2019-Dec-08 09:00N 41°30' W 070°42'0 0.0 350 / 21032.9 -2.4-10.1
2019-Dec-08 08:00N 41°30' W 070°42'0 0.0 350 / 81032.7 -2.2-10.6
2019-Dec-08 07:00N 41°30' W 070°42'0 0.0 010 / 51032.5 -1.9-10.5
2019-Dec-08 06:00N 41°30' W 070°42'0 0.0 020 / 31031.9 -1.7-10.4
2019-Dec-08 05:00N 41°30' W 070°42'0 0.0 340 / 91031.6 -1.4-9.8
2019-Dec-08 04:00N 41°30' W 070°42'2 3.9 360 / 51031.5 -1.3-9.9
2019-Dec-08 03:30N 41°31' W 070°40'0 0.0
2019-Dec-08 03:00N 41°31' W 070°40'2274.5
2019-Dec-08 03:00N 41°30' W 070°42'2 3.9 340 / 121031.3 -1.1-10.4
2019-Dec-08 02:30N 41°31' W 070°40'2 3.8
2019-Dec-08 02:00N 41°30' W 070°42'2 3.9 340 / 71030.7 -0.8-10.4
2019-Dec-08 01:30N 41°31' W 070°40'2 3.8
2019-Dec-08 01:00N 41°30' W 070°42'0 0.0 020 / 61030.2 -0.4-9.8
2019-Dec-08 00:00N 41°30' W 070°42'244.3 350 / 51029.7 0.1-9.8
2019-Dec-07 23:57N 41°31' W 070°40'0 0.0
2019-Dec-07 23:30N 41°31' W 070°40'2 3.8
2019-Dec-07 23:00N 41°30' W 070°42'0 0.0 320 / 91028.8 0.2-9.6
2019-Dec-07 22:00N 41°30' W 070°42'2 3.9 320 / 101027.9 0.8-9.3
2019-Dec-07 21:30N 41°31' W 070°40'2 3.8
2019-Dec-07 21:00N 41°30' W 070°42'2 3.9 310 / 61027.2 1.4-9.4
2019-Dec-07 20:30N 41°31' W 070°40'2 3.8
2019-Dec-07 20:00N 41°30' W 070°42'0 0.0 330 / 51026.5 1.6-9.9
2019-Dec-07 19:00N 41°30' W 070°42'0 0.0 350 / 31025.7 1.3-8.7
2019-Dec-07 18:00N 41°30' W 070°42'0 0.0 350 / 31025.6 0.9-8.7
2019-Dec-07 17:00N 41°30' W 070°42'0 0.0 310 / 91025.7 0.3-8.9
2019-Dec-07 16:00N 41°30' W 070°42'2 3.9 300 / 71026.1 -0.2-9.3
2019-Dec-07 15:30N 41°31' W 070°40'2 3.8
2019-Dec-07 15:00N 41°30' W 070°42'2 3.9 320 / 141026.1 -0.7-8.8
2019-Dec-07 14:30N 41°31' W 070°40'0 0.0
2019-Dec-07 14:00N 41°31' W 070°40'2274.9
2019-Dec-07 14:00N 41°30' W 070°42'0 0.0 320 / 151025.7 -1.0-8.6
2019-Dec-07 13:00N 41°30' W 070°42'0 0.0 330 / 81025.1 -1.0-7.8
2019-Dec-07 12:00N 41°30' W 070°42'0 0.0 330 / 91024.2 -1.0-7.3
2019-Dec-07 11:00N 41°30' W 070°42'2 3.9 330 / 81023.2 -0.7-6.4
2019-Dec-07 10:30N 41°31' W 070°40'2 3.8
2019-Dec-07 10:00N 41°30' W 070°42'2 3.9 330 / 61022.0 -0.0-5.7
2019-Dec-07 09:30N 41°31' W 070°40'2 3.8
2019-Dec-07 09:00N 41°30' W 070°42'2 3.9 340 / 81021.0 0.4-5.2
2019-Dec-07 08:30N 41°31' W 070°40'2 3.8
2019-Dec-07 08:00N 41°30' W 070°42'2 1.9 350 / 71020.3 0.8-5.2
2019-Dec-07 07:00N 41°31' W 070°40'2274.5
2019-Dec-07 07:00N 41°30' W 070°42'2 3.9 350 / 101019.3 1.3-4.9
2019-Dec-07 06:30N 41°31' W 070°40'2 3.8
2019-Dec-07 06:00N 41°30' W 070°42'0 0.0 330 / 71018.2 1.9-4.2
2019-Dec-07 05:00N 41°30' W 070°42'2 3.9 350 / 141017.1 3.6-1.8
2019-Dec-07 04:30N 41°31' W 070°40'2 3.8
2019-Dec-07 04:00N 41°30' W 070°42'2 1.9 310 / 121015.9 5.9-1.5
2019-Dec-07 03:00N 41°31' W 070°40'2274.9
2019-Dec-07 03:00N 41°30' W 070°42'0 0.0 290 / 171014.9 7.2 0.3
2019-Dec-07 02:00N 41°30' W 070°42'2 1.9 280 / 191013.8 8.2 1.1
2019-Dec-07 01:00N 41°31' W 070°40'2275.6
2019-Dec-07 01:00N 41°30' W 070°42'2 1.9 260 / 171013.2 8.9 3.8
2019-Dec-07 00:00N 41°31' W 070°40'2274.5
2019-Dec-07 00:00N 41°30' W 070°42'2 3.9 240 / 211012.9 9.6 4.2
2019-Dec-06 23:30N 41°31' W 070°40'2 3.8
2019-Dec-06 23:00N 41°30' W 070°42'0 0.0 230 / 231012.8 8.9 3.6
2019-Dec-06 22:00N 41°30' W 070°42'2 3.9 220 / 161013.6 8.6 3.0
2019-Dec-06 21:30N 41°31' W 070°40'0 0.0
2019-Dec-06 21:00N 41°31' W 070°40'2274.5
2019-Dec-06 21:00N 41°30' W 070°42'2 1.9 230 / 181014.5 7.7 1.6
2019-Dec-06 20:00N 41°31' W 070°40'2274.9
2019-Dec-06 20:00N 41°30' W 070°42'2 3.9 220 / 91015.4 6.0 1.1
2019-Dec-06 19:30N 41°31' W 070°40'2 3.8
2019-Dec-06 19:00N 41°30' W 070°42'2 1.9 230 / 101016.2 4.6-1.9
2019-Dec-06 18:00N 41°31' W 070°40'2274.9
2019-Dec-06 18:00N 41°30' W 070°42'2 1.9 230 / 171017.0 3.9-3.4
2019-Dec-06 17:00N 41°31' W 070°40'2274.9
2019-Dec-06 17:00N 41°30' W 070°42'2 1.9 230 / 121018.1 3.5-4.6
2019-Dec-06 16:00N 41°31' W 070°40'2274.5
2019-Dec-06 16:00N 41°30' W 070°42'0 0.0 260 / 131019.0 2.5-6.3
2019-Dec-06 15:00N 41°30' W 070°42'2 3.9 260 / 141020.4 2.1-6.3
2019-Dec-06 14:30N 41°31' W 070°40'0 0.0
2019-Dec-06 14:00N 41°31' W 070°40'2274.9
2019-Dec-06 14:00N 41°30' W 070°42'2 1.9 250 / 161020.3 1.6-6.3
2019-Dec-06 13:00N 41°31' W 070°40'2274.5
2019-Dec-06 13:00N 41°30' W 070°42'2 3.9 260 / 131019.7 1.2-6.6
2019-Dec-06 12:30N 41°31' W 070°40'2 3.8
2019-Dec-06 12:00N 41°30' W 070°42'220.5 290 / 151019.7 0.9-6.7
2019-Dec-06 11:54N 41°31' W 070°40'0 0.0
2019-Dec-06 11:00N 41°31' W 070°40'2274.9
2019-Dec-06 11:00N 41°30' W 070°42'0 0.0 290 / 161019.2 0.6-6.9
2019-Dec-06 10:00N 41°30' W 070°42'0 0.0 290 / 171018.6 0.5-6.9
2019-Dec-06 09:00N 41°30' W 070°42'0 0.0 280 / 241018.0 0.4-7.9
2019-Dec-06 08:00N 41°30' W 070°42'0 0.0 290 / 221017.6 0.6-8.0
2019-Dec-06 07:00N 41°30' W 070°42'244.3 290 / 231017.0 0.7-8.5
2019-Dec-06 06:57N 41°31' W 070°40'0 0.0
2019-Dec-06 06:30N 41°31' W 070°40'2 3.8
2019-Dec-06 06:00N 41°30' W 070°42'0 0.0 290 / 271015.8 0.9-8.4
2019-Dec-06 05:00N 41°30' W 070°42'2 3.9 290 / 191014.9 1.2-7.7
2019-Dec-06 04:30N 41°31' W 070°40'2 3.8
2019-Dec-06 04:00N 41°30' W 070°42'0 0.0 290 / 231013.9 1.6-7.7
2019-Dec-06 03:00N 41°30' W 070°42'2 1.9 300 / 201013.0 2.0-7.2
2019-Dec-06 02:00N 41°31' W 070°40'2274.5
2019-Dec-06 02:00N 41°30' W 070°42'2 3.9 270 / 241011.8 2.7-6.6
2019-Dec-06 01:30N 41°31' W 070°40'2 3.8
2019-Dec-06 01:00N 41°30' W 070°42'0 0.0 290 / 241011.0 3.1-7.5
2019-Dec-06 00:00N 41°30' W 070°42'0 0.0 290 / 311010.4 3.9-6.1
2019-Dec-05 23:00N 41°30' W 070°42'2 3.9 290 / 171009.4 4.5-4.8
2019-Dec-05 22:30N 41°31' W 070°40'2 3.8
2019-Dec-05 22:00N 41°30' W 070°42'0 0.0 280 / 201007.6 5.0-5.0
2019-Dec-05 21:00N 41°30' W 070°42'0 0.0 290 / 231006.2 5.5-4.2
2019-Dec-05 20:00N 41°30' W 070°42'2 3.9 280 / 171005.0 5.6-3.3
2019-Dec-05 19:30N 41°31' W 070°40'2 3.8
2019-Dec-05 19:00N 41°30' W 070°42'2 3.9 300 / 201003.8 5.7-3.0
2019-Dec-05 18:30N 41°31' W 070°40'2 3.8
2019-Dec-05 18:00N 41°30' W 070°42'2 3.9 280 / 161003.3 5.8-2.2
2019-Dec-05 17:30N 41°31' W 070°40'2 3.8
2019-Dec-05 17:00N 41°30' W 070°42'2 3.9 290 / 161003.0 5.4-1.2
2019-Dec-05 16:30N 41°31' W 070°40'2 3.8
2019-Dec-05 16:00N 41°30' W 070°42'2 3.9 290 / 151002.8 4.8-1.5
2019-Dec-05 15:30N 41°31' W 070°40'2 3.8
2019-Dec-05 15:00N 41°30' W 070°42'0 0.0 280 / 141003.1 3.8-1.3
2019-Dec-05 14:00N 41°30' W 070°42'2 3.9 290 / 111002.4 3.4-1.3
2019-Dec-05 13:30N 41°31' W 070°40'0 0.0
2019-Dec-05 13:00N 41°31' W 070°40'2274.9
2019-Dec-05 13:00N 41°30' W 070°42'0 0.0 290 / 131001.9 3.4-1.1
2019-Dec-05 12:00N 41°30' W 070°42'0 0.0 290 / 121001.2 3.1-0.9
2019-Dec-05 11:00N 41°30' W 070°42'0 0.0 280 / 111000.4 2.8-0.8
2019-Dec-05 10:00N 41°30' W 070°42'2 1.9 290 / 9999.5 2.8-1.3
2019-Dec-05 09:00N 41°31' W 070°40'2274.9
2019-Dec-05 09:00N 41°30' W 070°42'   280 / 7999.0 3.2-1.0

Dump ship's entire track history